createdAt,value
2022-09-13T00:03:45.026Z,85.76
2022-09-13T00:08:47.765Z,86.24
2022-09-13T00:13:50.300Z,86.01
2022-09-13T00:18:52.870Z,86.62
2022-09-13T00:23:55.813Z,89.28
2022-09-13T00:28:58.877Z,88.27
2022-09-13T00:34:00.832Z,88.26
2022-09-13T00:39:02.411Z,87.81
2022-09-13T00:44:05.092Z,88.77
2022-09-13T00:49:09.606Z,88.18
2022-09-13T00:54:12.933Z,87.96
2022-09-13T00:59:22.517Z,87.56
2022-09-13T01:04:27.897Z,87.90
2022-09-13T01:09:33.141Z,87.75
2022-09-13T01:14:35.956Z,88.04
2022-09-13T01:19:37.598Z,87.90
2022-09-13T01:25:10.139Z,88.11
2022-09-13T01:30:16.582Z,88.09
2022-09-13T01:35:40.343Z,89.18
2022-09-13T01:40:51.414Z,88.70
2022-09-13T01:46:05.257Z,88.44
2022-09-13T01:51:12.309Z,89.38
2022-09-13T01:56:25.348Z,89.66
2022-09-13T02:01:53.520Z,89.02
2022-09-13T02:07:05.356Z,88.48
2022-09-13T02:12:20.497Z,88.18
2022-09-13T02:17:28.018Z,87.77
2022-09-13T02:22:46.709Z,88.11
2022-09-13T02:27:53.899Z,88.35
2022-09-13T02:33:15.881Z,88.29
2022-09-13T02:38:24.862Z,87.93
2022-09-13T02:43:36.003Z,87.90
2022-09-13T02:48:58.900Z,88.26
2022-09-13T02:54:03.982Z,88.61
2022-09-13T02:59:23.227Z,88.41
2022-09-13T03:04:26.044Z,88.25
2022-09-13T03:09:28.074Z,88.25
2022-09-13T03:14:55.150Z,88.02
2022-09-13T03:20:19.228Z,88.20
2022-09-13T03:25:54.801Z,88.08
2022-09-13T03:31:23.429Z,88.18
2022-09-13T03:36:33.949Z,88.21
2022-09-13T03:41:42.060Z,88.64
2022-09-13T03:46:56.504Z,88.34
2022-09-13T03:51:59.192Z,88.52
2022-09-13T03:57:12.365Z,88.02
2022-09-13T04:02:15.314Z,88.23
2022-09-13T04:07:20.254Z,87.96
2022-09-13T04:12:22.051Z,87.43
2022-09-13T04:17:23.721Z,87.46
2022-09-13T04:22:25.578Z,87.53
2022-09-13T04:27:27.447Z,87.53
2022-09-13T04:32:29.682Z,87.90
2022-09-13T04:37:31.656Z,87.71
2022-09-13T04:42:33.223Z,87.32
2022-09-13T04:47:35.049Z,87.94
2022-09-13T04:52:36.890Z,88.08
2022-09-13T04:57:38.503Z,88.55
2022-09-13T05:02:40.274Z,88.18
2022-09-13T05:07:42.313Z,88.25
2022-09-13T05:12:43.916Z,88.89
2022-09-13T05:17:45.671Z,88.96
2022-09-13T05:22:47.612Z,88.87
2022-09-13T05:27:49.406Z,88.66
2022-09-13T05:32:51.485Z,88.73
2022-09-13T05:37:53.344Z,88.71
2022-09-13T05:42:55.279Z,88.71
2022-09-13T05:47:57.228Z,88.66
2022-09-13T05:52:58.901Z,89.06
2022-09-13T05:58:04.093Z,89.42
2022-09-13T06:03:06.769Z,89.27
2022-09-13T06:08:08.574Z,89.59
2022-09-13T06:13:10.611Z,90.21
2022-09-13T06:18:12.462Z,90.02
2022-09-13T06:23:15.098Z,90.01
2022-09-13T06:28:16.730Z,91.17
2022-09-13T06:33:18.341Z,91.81
2022-09-13T06:38:20.489Z,90.81
2022-09-13T06:43:22.275Z,90.38
2022-09-13T06:48:23.856Z,89.74
2022-09-13T06:53:25.553Z,89.78
2022-09-13T06:58:29.440Z,88.57
2022-09-13T07:03:31.198Z,88.28
2022-09-13T07:08:34.689Z,87.04
2022-09-13T07:13:36.373Z,87.16
2022-09-13T07:18:38.546Z,86.99
2022-09-13T07:23:40.622Z,85.89
2022-09-13T07:28:45.049Z,85.74
2022-09-13T07:33:47.997Z,84.36
2022-09-13T07:38:50.636Z,83.52
2022-09-13T07:43:52.873Z,84.14
2022-09-13T07:48:57.040Z,83.96
2022-09-13T07:54:01.026Z,82.46
2022-09-13T07:59:05.430Z,82.70
2022-09-13T08:04:09.470Z,82.09
2022-09-13T08:09:11.876Z,81.82
2022-09-13T08:14:16.262Z,80.43
2022-09-13T08:19:18.922Z,79.19
2022-09-13T08:24:22.041Z,75.66
2022-09-13T08:29:25.234Z,75.22
2022-09-13T08:34:27.273Z,75.24
2022-09-13T08:39:30.556Z,75.31
2022-09-13T08:44:59.178Z,74.54
2022-09-13T08:50:06.267Z,75.45
2022-09-13T08:55:48.917Z,73.60
2022-09-13T09:01:14.268Z,75.12
2022-09-13T09:06:17.757Z,74.57
2022-09-13T09:11:48.539Z,70.76
2022-09-13T09:17:26.373Z,72.50
2022-09-13T09:22:34.536Z,72.83
2022-09-13T09:27:36.424Z,72.66
2022-09-13T09:32:50.429Z,72.36
2022-09-13T09:38:10.739Z,72.51
2022-09-13T09:43:24.898Z,71.21
2022-09-13T09:48:45.784Z,69.29
2022-09-13T09:53:52.432Z,72.40
2022-09-13T09:58:55.880Z,69.58
2022-09-13T10:04:12.716Z,68.83
2022-09-13T10:09:14.481Z,69.85
2022-09-13T10:14:34.757Z,70.56
2022-09-13T10:19:38.098Z,68.29
2022-09-13T10:24:40.572Z,69.26
2022-09-13T10:29:48.961Z,68.53
2022-09-13T10:34:51.786Z,69.19
2022-09-13T10:40:02.647Z,68.27
2022-09-13T10:45:16.694Z,67.91
2022-09-13T10:50:26.614Z,67.24
2022-09-13T10:55:41.038Z,65.67
2022-09-13T11:01:01.420Z,66.47
2022-09-13T11:06:36.131Z,66.67
2022-09-13T11:11:45.838Z,65.79
2022-09-13T11:17:03.856Z,64.70
2022-09-13T11:22:30.467Z,63.60
2022-09-13T11:27:55.848Z,60.97
2022-09-13T11:33:21.829Z,62.27
2022-09-13T11:38:48.323Z,61.51
2022-09-13T11:43:57.629Z,61.63
2022-09-13T11:49:36.686Z,60.98
2022-09-13T11:55:02.930Z,63.14
2022-09-13T12:00:10.639Z,60.55
2022-09-13T12:05:22.807Z,62.66
2022-09-13T12:10:30.277Z,60.48
2022-09-13T12:15:39.364Z,62.40
2022-09-13T12:21:07.672Z,59.66
2022-09-13T12:26:18.858Z,60.64
2022-09-13T12:31:24.198Z,61.80
2022-09-13T12:36:29.033Z,56.48
2022-09-13T12:42:07.837Z,55.96
2022-09-13T12:47:15.269Z,57.24
2022-09-13T12:52:57.601Z,57.42
2022-09-13T12:58:32.930Z,59.50
2022-09-13T13:04:02.141Z,59.14
2022-09-13T13:09:29.085Z,59.28
2022-09-13T13:14:46.281Z,57.84
2022-09-13T13:19:47.948Z,57.91
2022-09-13T13:24:49.810Z,58.42
2022-09-13T13:30:29.117Z,56.70
2022-09-13T13:35:32.383Z,55.79
2022-09-13T13:40:34.931Z,55.69
2022-09-13T13:45:36.629Z,57.86
2022-09-13T13:51:12.985Z,56.42
2022-09-13T13:56:19.721Z,57.23
2022-09-13T14:01:26.266Z,56.43
2022-09-13T14:06:30.801Z,57.57
2022-09-13T14:11:32.343Z,57.08
2022-09-13T14:16:58.887Z,54.59
2022-09-13T14:22:21.908Z,55.75
2022-09-13T14:27:30.716Z,55.39
2022-09-13T14:32:42.439Z,55.44
2022-09-13T14:37:44.231Z,56.76
2022-09-13T14:42:48.101Z,56.43
2022-09-13T14:47:59.271Z,55.67
2022-09-13T14:53:03.708Z,54.98
2022-09-13T14:58:13.136Z,55.46
2022-09-13T15:03:18.129Z,55.30
2022-09-13T15:08:34.946Z,53.66
2022-09-13T15:13:38.418Z,54.39
2022-09-13T15:18:40.413Z,55.38
2022-09-13T15:23:49.168Z,56.19
2022-09-13T15:28:50.924Z,56.57
2022-09-13T15:34:31.253Z,57.61
2022-09-13T15:40:16.291Z,58.09
2022-09-13T15:45:20.449Z,58.37
2022-09-13T15:50:29.014Z,58.78
2022-09-13T15:55:31.179Z,59.26
2022-09-13T16:00:33.092Z,60.28
2022-09-13T16:05:36.599Z,60.62
2022-09-13T16:10:38.818Z,61.03
2022-09-13T16:15:40.718Z,61.20
2022-09-13T16:20:43.709Z,61.67
2022-09-13T16:25:45.545Z,61.62
2022-09-13T16:30:48.267Z,61.59
2022-09-13T16:35:49.913Z,61.24
2022-09-13T16:40:52.025Z,61.80
2022-09-13T16:45:53.871Z,61.83
2022-09-13T16:51:02.304Z,62.35
2022-09-13T16:56:15.704Z,62.58
2022-09-13T17:01:21.445Z,62.65
2022-09-13T17:06:24.873Z,62.61
2022-09-13T17:11:28.187Z,63.04
2022-09-13T17:16:31.578Z,63.25
2022-09-13T17:21:34.025Z,63.59
2022-09-13T17:26:36.370Z,63.75
2022-09-13T17:31:38.278Z,64.01
2022-09-13T17:36:41.397Z,64.26
2022-09-13T17:41:43.232Z,64.84
2022-09-13T17:46:45.151Z,64.82
2022-09-13T17:51:47.139Z,65.44
2022-09-13T17:56:50.521Z,65.45
2022-09-13T18:01:54.070Z,65.78
2022-09-13T18:06:56.217Z,66.79
2022-09-13T18:11:58.605Z,66.93
2022-09-13T18:17:00.162Z,66.79
2022-09-13T18:22:02.161Z,67.45
2022-09-13T18:27:04.326Z,67.18
2022-09-13T18:32:06.606Z,67.74
2022-09-13T18:37:08.378Z,68.13
2022-09-13T18:42:10.209Z,67.98
2022-09-13T18:47:13.169Z,68.61
2022-09-13T18:52:16.465Z,68.43
2022-09-13T18:57:18.293Z,68.46
2022-09-13T19:02:20.147Z,68.51
2022-09-13T19:07:22.427Z,69.21
2022-09-13T19:12:24.200Z,69.42
2022-09-13T19:17:25.795Z,69.75
2022-09-13T19:22:27.625Z,69.57
2022-09-13T19:27:29.213Z,69.99
2022-09-13T19:32:31.266Z,70.10
2022-09-13T19:37:33.312Z,70.69
2022-09-13T19:42:35.124Z,70.46
2022-09-13T19:48:25.874Z,71.60
2022-09-13T19:52:58.685Z,71.93
2022-09-13T19:58:01.095Z,72.36
2022-09-13T20:03:03.546Z,72.43
2022-09-13T20:08:06.273Z,73.00
2022-09-13T20:13:08.242Z,72.93
2022-09-13T20:18:15.445Z,73.30
2022-09-13T20:23:17.657Z,73.68
2022-09-13T20:28:19.829Z,74.15
2022-09-13T20:33:22.566Z,74.50
2022-09-13T20:38:25.629Z,74.98
2022-09-13T20:43:27.545Z,75.29
2022-09-13T20:48:29.397Z,75.24
2022-09-13T20:53:33.313Z,76.10
2022-09-13T20:58:38.836Z,76.73
2022-09-13T21:03:42.790Z,76.90
2022-09-13T21:08:46.841Z,76.85
2022-09-13T21:13:59.232Z,76.23
2022-09-13T21:19:01.252Z,76.82
2022-09-13T21:24:04.737Z,76.76
2022-09-13T21:29:06.549Z,77.49
2022-09-13T21:34:14.557Z,77.49
2022-09-13T21:39:16.870Z,77.59
2022-09-13T21:44:18.825Z,77.36
2022-09-13T21:49:20.820Z,77.52
2022-09-13T21:54:22.746Z,78.82
2022-09-13T21:59:24.611Z,79.62
2022-09-13T22:04:27.497Z,79.68
2022-09-13T22:09:29.589Z,79.50
2022-09-13T22:14:31.358Z,79.90
2022-09-13T22:19:32.997Z,79.73
2022-09-13T22:24:36.441Z,79.75
2022-09-13T22:29:38.180Z,80.02
2022-09-13T22:34:40.791Z,80.05
2022-09-13T22:39:42.454Z,79.67
2022-09-13T22:44:44.612Z,80.16
2022-09-13T22:49:46.393Z,80.34
2022-09-13T22:54:50.805Z,80.14
2022-09-13T22:59:52.726Z,80.93
2022-09-13T23:04:54.554Z,81.02
2022-09-13T23:09:56.270Z,81.34
2022-09-13T23:14:58.049Z,81.43
2022-09-13T23:19:59.799Z,81.69
2022-09-13T23:25:01.612Z,81.44
2022-09-13T23:30:03.745Z,81.76
2022-09-13T23:35:05.969Z,82.14
2022-09-13T23:40:08.171Z,82.94
2022-09-13T23:45:10.598Z,82.85
2022-09-13T23:50:12.201Z,83.05
2022-09-13T23:55:14.913Z,83.80
